Meteorología – Condiciones actuales

Viento: 10kts / 263° Pista Recomendada: 24
Componente de viento cruzado: 3.8kts
Temperatura: 14°C / Punto de Rocío: 2°C
QNH LELC: 1015 / Presión atmosf. LELG: 1015.24mbar
Condición CTR LELC: VFR
Altitud de Densidad: 231'AMSL / Isocero: 6710'AMSL
Orto: 07:41LT / Ocaso: 18:51LT
METAR LELC: LELC 272100Z 31014KT 280V340 CAVOK 17/01 Q1015 NOSIG
Fuente: NOAA
Datos completos de la estación meteorológica en Weather Underground
UTC time: